sensor_id;sensor_type;location;lat;lon;timestamp;temperature;humidity
52439;DHT22;38359;53.150;6.504;2023-01-24T00:08:45;3.50;99.90
52439;DHT22;38359;53.150;6.504;2023-01-24T00:19:11;3.20;99.90
52439;DHT22;38359;53.150;6.504;2023-01-24T00:29:36;3.00;99.90
52439;DHT22;38359;53.150;6.504;2023-01-24T00:40:02;3.40;99.90
52439;DHT22;38359;53.150;6.504;2023-01-24T00:50:28;3.30;99.90
52439;DHT22;38359;53.150;6.504;2023-01-24T01:00:55;3.20;99.90
52439;DHT22;38359;53.150;6.504;2023-01-24T01:11:21;3.00;99.90
52439;DHT22;38359;53.150;6.504;2023-01-24T01:21:47;3.10;99.90
52439;DHT22;38359;53.150;6.504;2023-01-24T01:32:15;3.40;99.90
52439;DHT22;38359;53.150;6.504;2023-01-24T01:53:14;3.50;99.90
52439;DHT22;38359;53.150;6.504;2023-01-24T02:03:45;3.40;99.90
52439;DHT22;38359;53.150;6.504;2023-01-24T02:14:17;3.50;99.90
52439;DHT22;38359;53.150;6.504;2023-01-24T02:36:32;3.40;99.90
52439;DHT22;38359;53.150;6.504;2023-01-24T02:47:00;3.50;99.90
52439;DHT22;38359;53.150;6.504;2023-01-24T02:57:27;3.40;99.90
52439;DHT22;38359;53.150;6.504;2023-01-24T03:08:12;3.50;99.90
52439;DHT22;38359;53.150;6.504;2023-01-24T03:18:38;3.00;99.90
52439;DHT22;38359;53.150;6.504;2023-01-24T03:29:22;3.50;99.90
52439;DHT22;38359;53.150;6.504;2023-01-24T03:40:10;3.00;99.90
52439;DHT22;38359;53.150;6.504;2023-01-24T03:50:40;2.90;99.90
52439;DHT22;38359;53.150;6.504;2023-01-24T04:01:26;2.90;99.90
52439;DHT22;38359;53.150;6.504;2023-01-24T04:11:51;3.40;99.90
52439;DHT22;38359;53.150;6.504;2023-01-24T04:22:18;3.50;99.90
52439;DHT22;38359;53.150;6.504;2023-01-24T04:32:44;3.20;99.90
52439;DHT22;38359;53.150;6.504;2023-01-24T04:43:10;3.40;99.90
52439;DHT22;38359;53.150;6.504;2023-01-24T04:53:38;3.10;99.90
52439;DHT22;38359;53.150;6.504;2023-01-24T05:04:05;3.50;99.90
52439;DHT22;38359;53.150;6.504;2023-01-24T05:14:31;3.50;99.90
52439;DHT22;38359;53.150;6.504;2023-01-24T05:24:57;3.20;99.90
52439;DHT22;38359;53.150;6.504;2023-01-24T05:35:23;3.00;99.90
52439;DHT22;38359;53.150;6.504;2023-01-24T05:45:49;2.90;99.90
52439;DHT22;38359;53.150;6.504;2023-01-24T05:56:17;3.40;99.90
52439;DHT22;38359;53.150;6.504;2023-01-24T06:06:44;3.10;99.90
52439;DHT22;38359;53.150;6.504;2023-01-24T06:17:10;2.90;99.90
52439;DHT22;38359;53.150;6.504;2023-01-24T06:27:36;3.10;99.90
52439;DHT22;38359;53.150;6.504;2023-01-24T06:38:02;3.10;99.90
52439;DHT22;38359;53.150;6.504;2023-01-24T06:48:28;3.20;99.90
52439;DHT22;38359;53.150;6.504;2023-01-24T06:58:54;3.20;99.90
52439;DHT22;38359;53.150;6.504;2023-01-24T07:09:20;2.90;99.90
52439;DHT22;38359;53.150;6.504;2023-01-24T07:19:50;2.90;99.90
52439;DHT22;38359;53.150;6.504;2023-01-24T07:30:16;2.90;99.90
52439;DHT22;38359;53.150;6.504;2023-01-24T07:40:42;3.00;99.90
52439;DHT22;38359;53.150;6.504;2023-01-24T07:51:07;3.10;99.90
52439;DHT22;38359;53.150;6.504;2023-01-24T08:01:34;3.20;99.90
52439;DHT22;38359;53.150;6.504;2023-01-24T08:12:00;3.10;99.90
52439;DHT22;38359;53.150;6.504;2023-01-24T08:22:26;2.80;99.90
52439;DHT22;38359;53.150;6.504;2023-01-24T08:33:03;3.20;99.90
52439;DHT22;38359;53.150;6.504;2023-01-24T08:43:29;3.40;99.90
52439;DHT22;38359;53.150;6.504;2023-01-24T08:53:55;3.30;99.90
52439;DHT22;38359;53.150;6.504;2023-01-24T09:04:21;3.30;99.90
52439;DHT22;38359;53.150;6.504;2023-01-24T09:14:47;3.40;99.90
52439;DHT22;38359;53.150;6.504;2023-01-24T09:25:14;3.10;99.90
52439;DHT22;38359;53.150;6.504;2023-01-24T09:35:40;3.40;99.90
52439;DHT22;38359;53.150;6.504;2023-01-24T09:46:31;3.20;99.90
52439;DHT22;38359;53.150;6.504;2023-01-24T09:57:01;3.30;99.90
52439;DHT22;38359;53.150;6.504;2023-01-24T10:08:09;3.20;99.90
52439;DHT22;38359;53.150;6.504;2023-01-24T10:29:36;3.50;99.90
52439;DHT22;38359;53.150;6.504;2023-01-24T10:40:11;3.30;99.90
52439;DHT22;38359;53.150;6.504;2023-01-24T10:50:42;3.40;99.90
52439;DHT22;38359;53.150;6.504;2023-01-24T11:01:21;3.70;99.90
52439;DHT22;38359;53.150;6.504;2023-01-24T11:11:53;3.80;99.90
52439;DHT22;38359;53.150;6.504;2023-01-24T11:22:24;3.60;99.90
52439;DHT22;38359;53.150;6.504;2023-01-24T11:33:23;3.40;99.90
52439;DHT22;38359;53.150;6.504;2023-01-24T11:44:57;3.70;99.90
52439;DHT22;38359;53.150;6.504;2023-01-24T11:55:28;3.50;99.90
52439;DHT22;38359;53.150;6.504;2023-01-24T12:06:36;3.50;99.90
52439;DHT22;38359;53.150;6.504;2023-01-24T12:17:22;3.60;99.90
52439;DHT22;38359;53.150;6.504;2023-01-24T12:28:00;3.50;99.90
52439;DHT22;38359;53.150;6.504;2023-01-24T12:38:51;3.80;99.90
52439;DHT22;38359;53.150;6.504;2023-01-24T13:00:32;3.80;99.90
52439;DHT22;38359;53.150;6.504;2023-01-24T13:11:26;3.90;99.90
52439;DHT22;38359;53.150;6.504;2023-01-24T13:32:53;3.90;99.90
52439;DHT22;38359;53.150;6.504;2023-01-24T13:54:43;3.90;99.90
52439;DHT22;38359;53.150;6.504;2023-01-24T14:15:57;3.70;99.90
52439;DHT22;38359;53.150;6.504;2023-01-24T14:26:26;3.50;99.90
52439;DHT22;38359;53.150;6.504;2023-01-24T14:37:03;3.20;99.90
52439;DHT22;38359;53.150;6.504;2023-01-24T14:47:34;3.50;99.90
52439;DHT22;38359;53.150;6.504;2023-01-24T14:58:20;3.60;99.90
52439;DHT22;38359;53.150;6.504;2023-01-24T15:08:55;3.20;99.90
52439;DHT22;38359;53.150;6.504;2023-01-24T15:19:24;3.30;99.90
52439;DHT22;38359;53.150;6.504;2023-01-24T15:30:09;3.10;99.90
52439;DHT22;38359;53.150;6.504;2023-01-24T15:40:59;3.90;99.90
52439;DHT22;38359;53.150;6.504;2023-01-24T15:51:35;3.20;99.90
52439;DHT22;38359;53.150;6.504;2023-01-24T16:02:01;3.20;99.90
52439;DHT22;38359;53.150;6.504;2023-01-24T16:12:30;2.90;99.90
52439;DHT22;38359;53.150;6.504;2023-01-24T16:22:57;3.00;99.90
52439;DHT22;38359;53.150;6.504;2023-01-24T16:33:24;2.60;99.90
52439;DHT22;38359;53.150;6.504;2023-01-24T16:43:50;2.70;99.90
52439;DHT22;38359;53.150;6.504;2023-01-24T16:54:16;2.90;99.90
52439;DHT22;38359;53.150;6.504;2023-01-24T17:04:42;2.70;99.90
52439;DHT22;38359;53.150;6.504;2023-01-24T17:15:08;2.70;99.90
52439;DHT22;38359;53.150;6.504;2023-01-24T17:25:34;2.60;99.90
52439;DHT22;38359;53.150;6.504;2023-01-24T17:36:00;2.60;99.90
52439;DHT22;38359;53.150;6.504;2023-01-24T17:46:29;2.70;99.90
52439;DHT22;38359;53.150;6.504;2023-01-24T17:56:55;2.10;99.90
52439;DHT22;38359;53.150;6.504;2023-01-24T18:07:21;2.50;99.90
52439;DHT22;38359;53.150;6.504;2023-01-24T18:17:47;2.40;99.90
52439;DHT22;38359;53.150;6.504;2023-01-24T18:28:12;2.20;99.90
52439;DHT22;38359;53.150;6.504;2023-01-24T18:38:38;2.50;99.90
52439;DHT22;38359;53.150;6.504;2023-01-24T18:49:09;2.20;99.90
52439;DHT22;38359;53.150;6.504;2023-01-24T18:59:35;2.20;99.90
52439;DHT22;38359;53.150;6.504;2023-01-24T19:10:01;2.30;99.90
52439;DHT22;38359;53.150;6.504;2023-01-24T19:20:27;2.20;99.90
52439;DHT22;38359;53.150;6.504;2023-01-24T19:30:53;2.10;99.90
52439;DHT22;38359;53.150;6.504;2023-01-24T19:41:19;1.70;99.90
52439;DHT22;38359;53.150;6.504;2023-01-24T19:51:45;1.80;99.90
52439;DHT22;38359;53.150;6.504;2023-01-24T20:02:11;1.80;99.90
52439;DHT22;38359;53.150;6.504;2023-01-24T20:12:37;1.80;99.90
52439;DHT22;38359;53.150;6.504;2023-01-24T20:23:05;1.80;99.90
52439;DHT22;38359;53.150;6.504;2023-01-24T20:33:31;1.50;99.90
52439;DHT22;38359;53.150;6.504;2023-01-24T20:43:57;1.70;99.90
52439;DHT22;38359;53.150;6.504;2023-01-24T20:54:23;1.50;99.90
52439;DHT22;38359;53.150;6.504;2023-01-24T21:04:49;1.70;99.90
52439;DHT22;38359;53.150;6.504;2023-01-24T21:15:15;1.60;99.90
52439;DHT22;38359;53.150;6.504;2023-01-24T21:25:41;1.20;99.90
52439;DHT22;38359;53.150;6.504;2023-01-24T21:36:15;1.40;99.90
52439;DHT22;38359;53.150;6.504;2023-01-24T21:46:41;1.80;99.90
52439;DHT22;38359;53.150;6.504;2023-01-24T21:57:09;1.80;99.90
52439;DHT22;38359;53.150;6.504;2023-01-24T22:07:54;1.60;99.90
52439;DHT22;38359;53.150;6.504;2023-01-24T22:18:20;1.70;99.90
52439;DHT22;38359;53.150;6.504;2023-01-24T22:28:46;1.90;99.90
52439;DHT22;38359;53.150;6.504;2023-01-24T22:39:12;1.50;99.90
52439;DHT22;38359;53.150;6.504;2023-01-24T22:49:38;1.60;99.90
52439;DHT22;38359;53.150;6.504;2023-01-24T23:00:05;1.70;99.90
52439;DHT22;38359;53.150;6.504;2023-01-24T23:10:33;1.50;99.90
52439;DHT22;38359;53.150;6.504;2023-01-24T23:20:59;1.60;99.90
52439;DHT22;38359;53.150;6.504;2023-01-24T23:31:43;2.60;99.90
52439;DHT22;38359;53.150;6.504;2023-01-24T23:42:09;1.60;99.90
52439;DHT22;38359;53.150;6.504;2023-01-24T23:52:35;1.30;99.90
